sensor_id;sensor_type;location;lat;lon;timestamp;temperature;humidity
28614;DHT22;15806;53.548;9.964;2023-04-06T00:00:13;5.30;1.00
28614;DHT22;15806;53.548;9.964;2023-04-06T00:01:55;5.30;1.00
28614;DHT22;15806;53.548;9.964;2023-04-06T00:03:36;5.20;1.00
28614;DHT22;15806;53.548;9.964;2023-04-06T00:05:16;5.20;1.00
28614;DHT22;15806;53.548;9.964;2023-04-06T00:06:57;5.10;1.00
28614;DHT22;15806;53.548;9.964;2023-04-06T00:08:37;5.10;1.00
28614;DHT22;15806;53.548;9.964;2023-04-06T00:10:18;5.10;1.00
28614;DHT22;15806;53.548;9.964;2023-04-06T00:11:58;5.10;1.00
28614;DHT22;15806;53.548;9.964;2023-04-06T00:13:39;5.10;1.00
28614;DHT22;15806;53.548;9.964;2023-04-06T00:15:20;5.00;1.00
28614;DHT22;15806;53.548;9.964;2023-04-06T00:17:00;5.10;1.00
28614;DHT22;15806;53.548;9.964;2023-04-06T00:18:41;5.10;1.00
28614;DHT22;15806;53.548;9.964;2023-04-06T00:20:22;5.10;1.00
28614;DHT22;15806;53.548;9.964;2023-04-06T00:22:02;5.10;1.00
28614;DHT22;15806;53.548;9.964;2023-04-06T00:23:43;5.00;1.00
28614;DHT22;15806;53.548;9.964;2023-04-06T00:25:24;5.00;1.00
28614;DHT22;15806;53.548;9.964;2023-04-06T00:27:04;5.10;1.00
28614;DHT22;15806;53.548;9.964;2023-04-06T00:28:45;5.10;1.00
28614;DHT22;15806;53.548;9.964;2023-04-06T00:30:25;5.00;1.00
28614;DHT22;15806;53.548;9.964;2023-04-06T00:32:07;5.00;1.00
28614;DHT22;15806;53.548;9.964;2023-04-06T00:33:48;5.10;1.00
28614;DHT22;15806;53.548;9.964;2023-04-06T00:35:28;5.00;1.00
28614;DHT22;15806;53.548;9.964;2023-04-06T00:37:11;5.00;1.00
28614;DHT22;15806;53.548;9.964;2023-04-06T00:38:51;5.00;1.00
28614;DHT22;15806;53.548;9.964;2023-04-06T00:40:32;4.90;1.00
28614;DHT22;15806;53.548;9.964;2023-04-06T00:42:13;4.90;1.00
28614;DHT22;15806;53.548;9.964;2023-04-06T00:43:54;4.90;1.00
28614;DHT22;15806;53.548;9.964;2023-04-06T00:45:35;4.90;1.00
28614;DHT22;15806;53.548;9.964;2023-04-06T00:47:15;4.90;1.00
28614;DHT22;15806;53.548;9.964;2023-04-06T00:48:56;4.80;1.00
28614;DHT22;15806;53.548;9.964;2023-04-06T00:50:37;4.80;1.00
28614;DHT22;15806;53.548;9.964;2023-04-06T00:52:18;4.80;1.00
28614;DHT22;15806;53.548;9.964;2023-04-06T00:53:59;4.80;1.00
28614;DHT22;15806;53.548;9.964;2023-04-06T00:55:41;4.80;1.00
28614;DHT22;15806;53.548;9.964;2023-04-06T00:57:21;4.80;1.00
28614;DHT22;15806;53.548;9.964;2023-04-06T00:59:02;4.80;1.00
28614;DHT22;15806;53.548;9.964;2023-04-06T01:00:42;4.80;1.00
28614;DHT22;15806;53.548;9.964;2023-04-06T01:02:24;4.80;1.00
28614;DHT22;15806;53.548;9.964;2023-04-06T01:04:04;4.80;1.00
28614;DHT22;15806;53.548;9.964;2023-04-06T01:05:45;4.70;1.00
28614;DHT22;15806;53.548;9.964;2023-04-06T01:07:25;4.70;1.00
28614;DHT22;15806;53.548;9.964;2023-04-06T01:09:06;4.70;1.00
28614;DHT22;15806;53.548;9.964;2023-04-06T01:10:46;4.60;1.00
28614;DHT22;15806;53.548;9.964;2023-04-06T01:12:27;4.60;53.30
28614;DHT22;15806;53.548;9.964;2023-04-06T01:14:08;4.60;84.50
28614;DHT22;15806;53.548;9.964;2023-04-06T01:15:49;4.60;91.70
28614;DHT22;15806;53.548;9.964;2023-04-06T01:17:29;4.50;99.90
28614;DHT22;15806;53.548;9.964;2023-04-06T01:19:11;4.50;99.90
28614;DHT22;15806;53.548;9.964;2023-04-06T01:20:52;4.50;99.90
28614;DHT22;15806;53.548;9.964;2023-04-06T01:22:33;4.50;99.90
28614;DHT22;15806;53.548;9.964;2023-04-06T01:24:14;4.40;99.90
28614;DHT22;15806;53.548;9.964;2023-04-06T01:25:54;4.50;99.90
28614;DHT22;15806;53.548;9.964;2023-04-06T01:27:35;4.50;99.90
28614;DHT22;15806;53.548;9.964;2023-04-06T01:29:15;4.40;99.90
28614;DHT22;15806;53.548;9.964;2023-04-06T01:30:56;4.50;99.90
28614;DHT22;15806;53.548;9.964;2023-04-06T01:32:36;4.30;99.90
28614;DHT22;15806;53.548;9.964;2023-04-06T01:34:17;4.40;99.90
28614;DHT22;15806;53.548;9.964;2023-04-06T01:35:57;4.40;99.90
28614;DHT22;15806;53.548;9.964;2023-04-06T01:37:38;4.40;99.90
28614;DHT22;15806;53.548;9.964;2023-04-06T01:39:19;4.30;99.90
28614;DHT22;15806;53.548;9.964;2023-04-06T01:41:00;4.30;99.90
28614;DHT22;15806;53.548;9.964;2023-04-06T01:42:41;4.30;99.90
28614;DHT22;15806;53.548;9.964;2023-04-06T01:44:21;4.30;99.90
28614;DHT22;15806;53.548;9.964;2023-04-06T01:46:02;4.30;99.90
28614;DHT22;15806;53.548;9.964;2023-04-06T01:47:42;4.30;99.90
28614;DHT22;15806;53.548;9.964;2023-04-06T01:49:24;4.30;99.90
28614;DHT22;15806;53.548;9.964;2023-04-06T01:51:05;4.20;99.90
28614;DHT22;15806;53.548;9.964;2023-04-06T01:52:45;4.20;99.90
28614;DHT22;15806;53.548;9.964;2023-04-06T01:54:26;4.20;99.90
28614;DHT22;15806;53.548;9.964;2023-04-06T01:56:06;4.10;99.90
28614;DHT22;15806;53.548;9.964;2023-04-06T01:57:47;4.10;99.90
28614;DHT22;15806;53.548;9.964;2023-04-06T01:59:28;4.10;99.90
28614;DHT22;15806;53.548;9.964;2023-04-06T02:01:08;4.10;99.90
28614;DHT22;15806;53.548;9.964;2023-04-06T02:02:49;4.10;99.90
28614;DHT22;15806;53.548;9.964;2023-04-06T02:04:29;4.10;1.00
28614;DHT22;15806;53.548;9.964;2023-04-06T02:06:10;4.10;1.00
28614;DHT22;15806;53.548;9.964;2023-04-06T02:07:50;4.10;1.00
28614;DHT22;15806;53.548;9.964;2023-04-06T02:09:31;4.10;1.00
28614;DHT22;15806;53.548;9.964;2023-04-06T02:11:11;4.10;1.00
28614;DHT22;15806;53.548;9.964;2023-04-06T02:12:52;4.00;1.00
28614;DHT22;15806;53.548;9.964;2023-04-06T02:14:32;4.00;1.00
28614;DHT22;15806;53.548;9.964;2023-04-06T02:16:13;3.90;1.00
28614;DHT22;15806;53.548;9.964;2023-04-06T02:17:53;3.90;1.00
28614;DHT22;15806;53.548;9.964;2023-04-06T02:19:34;3.90;1.00
28614;DHT22;15806;53.548;9.964;2023-04-06T02:21:14;3.90;1.00
28614;DHT22;15806;53.548;9.964;2023-04-06T02:22:58;3.90;1.00
28614;DHT22;15806;53.548;9.964;2023-04-06T02:24:39;3.90;52.50
28614;DHT22;15806;53.548;9.964;2023-04-06T02:26:19;4.00;99.90
28614;DHT22;15806;53.548;9.964;2023-04-06T02:28:00;4.00;99.90
28614;DHT22;15806;53.548;9.964;2023-04-06T02:29:40;4.00;99.90
28614;DHT22;15806;53.548;9.964;2023-04-06T02:31:30;4.00;99.90
28614;DHT22;15806;53.548;9.964;2023-04-06T02:33:16;4.00;99.90
28614;DHT22;15806;53.548;9.964;2023-04-06T02:34:56;3.90;99.90
28614;DHT22;15806;53.548;9.964;2023-04-06T02:36:37;3.90;99.90
28614;DHT22;15806;53.548;9.964;2023-04-06T02:38:18;3.90;99.90
28614;DHT22;15806;53.548;9.964;2023-04-06T02:39:58;3.80;98.40
28614;DHT22;15806;53.548;9.964;2023-04-06T02:41:39;3.80;99.90
28614;DHT22;15806;53.548;9.964;2023-04-06T02:43:19;3.80;99.90
28614;DHT22;15806;53.548;9.964;2023-04-06T02:45:00;3.70;99.90
28614;DHT22;15806;53.548;9.964;2023-04-06T02:46:41;3.70;99.90
28614;DHT22;15806;53.548;9.964;2023-04-06T02:48:21;3.70;99.90
28614;DHT22;15806;53.548;9.964;2023-04-06T02:50:02;3.60;99.90
28614;DHT22;15806;53.548;9.964;2023-04-06T02:51:42;3.60;99.90
28614;DHT22;15806;53.548;9.964;2023-04-06T02:53:23;3.50;99.90
28614;DHT22;15806;53.548;9.964;2023-04-06T02:55:04;3.50;99.90
28614;DHT22;15806;53.548;9.964;2023-04-06T02:56:45;3.40;1.00
28614;DHT22;15806;53.548;9.964;2023-04-06T02:58:25;3.40;1.00
28614;DHT22;15806;53.548;9.964;2023-04-06T03:00:06;3.40;1.00
28614;DHT22;15806;53.548;9.964;2023-04-06T03:01:47;3.50;1.00
28614;DHT22;15806;53.548;9.964;2023-04-06T03:03:27;3.50;1.00
28614;DHT22;15806;53.548;9.964;2023-04-06T03:05:08;3.40;1.00
28614;DHT22;15806;53.548;9.964;2023-04-06T03:06:49;3.40;23.70
28614;DHT22;15806;53.548;9.964;2023-04-06T03:08:29;3.30;99.90
28614;DHT22;15806;53.548;9.964;2023-04-06T03:10:10;3.30;99.90
28614;DHT22;15806;53.548;9.964;2023-04-06T03:11:51;3.30;99.90
28614;DHT22;15806;53.548;9.964;2023-04-06T03:13:31;3.30;99.90
28614;DHT22;15806;53.548;9.964;2023-04-06T03:15:12;3.30;1.00
28614;DHT22;15806;53.548;9.964;2023-04-06T03:16:52;3.30;1.00
28614;DHT22;15806;53.548;9.964;2023-04-06T03:18:33;3.20;28.90
28614;DHT22;15806;53.548;9.964;2023-04-06T03:20:13;3.20;99.90
28614;DHT22;15806;53.548;9.964;2023-04-06T03:21:54;3.20;99.90
28614;DHT22;15806;53.548;9.964;2023-04-06T03:23:35;3.20;1.00
28614;DHT22;15806;53.548;9.964;2023-04-06T03:25:15;3.10;1.00
28614;DHT22;15806;53.548;9.964;2023-04-06T03:26:56;3.10;1.00
28614;DHT22;15806;53.548;9.964;2023-04-06T03:28:36;3.00;1.00
28614;DHT22;15806;53.548;9.964;2023-04-06T03:30:17;3.00;1.00
28614;DHT22;15806;53.548;9.964;2023-04-06T03:31:58;3.10;1.00
28614;DHT22;15806;53.548;9.964;2023-04-06T03:33:38;3.00;1.00
28614;DHT22;15806;53.548;9.964;2023-04-06T03:35:19;3.10;1.00
28614;DHT22;15806;53.548;9.964;2023-04-06T03:36:59;3.00;12.50
28614;DHT22;15806;53.548;9.964;2023-04-06T03:38:40;3.10;14.50
28614;DHT22;15806;53.548;9.964;2023-04-06T03:40:20;3.00;1.00
28614;DHT22;15806;53.548;9.964;2023-04-06T03:42:01;3.00;1.00
28614;DHT22;15806;53.548;9.964;2023-04-06T03:43:41;3.00;44.60
28614;DHT22;15806;53.548;9.964;2023-04-06T03:45:22;3.00;59.80
28614;DHT22;15806;53.548;9.964;2023-04-06T03:47:03;3.00;54.60
28614;DHT22;15806;53.548;9.964;2023-04-06T03:48:43;3.00;98.50
28614;DHT22;15806;53.548;9.964;2023-04-06T03:50:24;3.00;98.80
28614;DHT22;15806;53.548;9.964;2023-04-06T03:52:04;3.00;99.90
28614;DHT22;15806;53.548;9.964;2023-04-06T03:53:45;3.00;99.90
28614;DHT22;15806;53.548;9.964;2023-04-06T03:55:25;3.00;23.00
28614;DHT22;15806;53.548;9.964;2023-04-06T03:57:06;2.90;1.00
28614;DHT22;15806;53.548;9.964;2023-04-06T03:58:46;2.90;2.90
28614;DHT22;15806;53.548;9.964;2023-04-06T04:00:27;2.90;99.90
28614;DHT22;15806;53.548;9.964;2023-04-06T04:02:09;2.80;99.90
28614;DHT22;15806;53.548;9.964;2023-04-06T04:03:49;2.80;99.90
28614;DHT22;15806;53.548;9.964;2023-04-06T04:05:30;2.80;99.90
28614;DHT22;15806;53.548;9.964;2023-04-06T04:07:10;2.90;1.00
28614;DHT22;15806;53.548;9.964;2023-04-06T04:08:51;2.90;1.00
28614;DHT22;15806;53.548;9.964;2023-04-06T04:10:31;2.80;1.00
28614;DHT22;15806;53.548;9.964;2023-04-06T04:12:12;2.80;1.00
28614;DHT22;15806;53.548;9.964;2023-04-06T04:13:53;2.90;41.90
28614;DHT22;15806;53.548;9.964;2023-04-06T04:15:33;2.90;99.90
28614;DHT22;15806;53.548;9.964;2023-04-06T04:17:14;2.90;99.90
28614;DHT22;15806;53.548;9.964;2023-04-06T04:18:54;2.90;99.90
28614;DHT22;15806;53.548;9.964;2023-04-06T04:20:35;2.90;1.00
28614;DHT22;15806;53.548;9.964;2023-04-06T04:22:15;2.90;1.00
28614;DHT22;15806;53.548;9.964;2023-04-06T04:23:56;2.90;1.00
28614;DHT22;15806;53.548;9.964;2023-04-06T04:25:37;3.00;46.70
28614;DHT22;15806;53.548;9.964;2023-04-06T04:27:17;3.00;99.90
28614;DHT22;15806;53.548;9.964;2023-04-06T04:28:58;3.00;99.90
28614;DHT22;15806;53.548;9.964;2023-04-06T04:30:38;3.10;1.00
28614;DHT22;15806;53.548;9.964;2023-04-06T04:32:19;3.10;83.70
28614;DHT22;15806;53.548;9.964;2023-04-06T04:33:59;3.10;99.90
28614;DHT22;15806;53.548;9.964;2023-04-06T04:35:40;3.20;1.00
28614;DHT22;15806;53.548;9.964;2023-04-06T04:37:21;3.10;1.00
28614;DHT22;15806;53.548;9.964;2023-04-06T04:39:01;3.20;1.00
28614;DHT22;15806;53.548;9.964;2023-04-06T04:40:42;3.20;18.40
28614;DHT22;15806;53.548;9.964;2023-04-06T04:42:22;3.20;1.00
28614;DHT22;15806;53.548;9.964;2023-04-06T04:44:03;3.10;1.00
28614;DHT22;15806;53.548;9.964;2023-04-06T04:45:43;3.00;1.00
28614;DHT22;15806;53.548;9.964;2023-04-06T04:47:24;3.00;1.00
28614;DHT22;15806;53.548;9.964;2023-04-06T04:49:04;3.00;99.90
28614;DHT22;15806;53.548;9.964;2023-04-06T04:50:45;3.00;1.00
28614;DHT22;15806;53.548;9.964;2023-04-06T04:52:26;2.90;1.00
28614;DHT22;15806;53.548;9.964;2023-04-06T04:54:06;2.90;99.90
28614;DHT22;15806;53.548;9.964;2023-04-06T04:55:47;2.80;99.90
28614;DHT22;15806;53.548;9.964;2023-04-06T04:57:27;2.80;99.90
28614;DHT22;15806;53.548;9.964;2023-04-06T04:59:08;2.80;99.90
28614;DHT22;15806;53.548;9.964;2023-04-06T05:00:48;2.80;99.90
28614;DHT22;15806;53.548;9.964;2023-04-06T05:02:29;2.80;99.90
28614;DHT22;15806;53.548;9.964;2023-04-06T05:04:09;2.80;99.90
28614;DHT22;15806;53.548;9.964;2023-04-06T05:05:50;2.70;99.90
28614;DHT22;15806;53.548;9.964;2023-04-06T05:07:31;2.70;99.90
28614;DHT22;15806;53.548;9.964;2023-04-06T05:09:11;2.70;99.90
28614;DHT22;15806;53.548;9.964;2023-04-06T05:10:52;2.70;99.90
28614;DHT22;15806;53.548;9.964;2023-04-06T05:12:32;2.70;99.90
28614;DHT22;15806;53.548;9.964;2023-04-06T05:14:13;2.60;99.90
28614;DHT22;15806;53.548;9.964;2023-04-06T05:15:53;2.60;99.90
28614;DHT22;15806;53.548;9.964;2023-04-06T05:17:34;2.70;99.90
28614;DHT22;15806;53.548;9.964;2023-04-06T05:19:15;2.60;99.90
28614;DHT22;15806;53.548;9.964;2023-04-06T05:20:55;2.60;99.90
28614;DHT22;15806;53.548;9.964;2023-04-06T05:22:36;2.60;1.00
28614;DHT22;15806;53.548;9.964;2023-04-06T05:24:16;2.60;1.00
28614;DHT22;15806;53.548;9.964;2023-04-06T05:25:57;2.60;99.90
28614;DHT22;15806;53.548;9.964;2023-04-06T05:27:38;2.70;99.90
28614;DHT22;15806;53.548;9.964;2023-04-06T05:29:18;2.70;99.90
28614;DHT22;15806;53.548;9.964;2023-04-06T05:30:59;2.60;99.90
28614;DHT22;15806;53.548;9.964;2023-04-06T05:32:39;2.70;1.00
28614;DHT22;15806;53.548;9.964;2023-04-06T05:34:20;2.80;99.90
28614;DHT22;15806;53.548;9.964;2023-04-06T05:36:01;2.80;1.00
28614;DHT22;15806;53.548;9.964;2023-04-06T05:37:41;2.80;99.90
28614;DHT22;15806;53.548;9.964;2023-04-06T05:39:22;2.90;99.90
28614;DHT22;15806;53.548;9.964;2023-04-06T05:41:02;2.90;1.00
28614;DHT22;15806;53.548;9.964;2023-04-06T05:42:43;2.90;1.00
28614;DHT22;15806;53.548;9.964;2023-04-06T05:44:23;2.90;1.00
28614;DHT22;15806;53.548;9.964;2023-04-06T05:46:04;3.00;1.00
28614;DHT22;15806;53.548;9.964;2023-04-06T05:47:45;3.00;1.00
28614;DHT22;15806;53.548;9.964;2023-04-06T05:49:25;3.00;1.00
28614;DHT22;15806;53.548;9.964;2023-04-06T05:51:06;2.90;73.70
28614;DHT22;15806;53.548;9.964;2023-04-06T05:52:46;3.00;99.90
28614;DHT22;15806;53.548;9.964;2023-04-06T05:54:28;2.90;99.90
28614;DHT22;15806;53.548;9.964;2023-04-06T05:56:10;3.00;99.90
28614;DHT22;15806;53.548;9.964;2023-04-06T05:57:50;3.00;99.90
28614;DHT22;15806;53.548;9.964;2023-04-06T05:59:31;3.10;99.90
28614;DHT22;15806;53.548;9.964;2023-04-06T06:01:12;3.10;99.90
28614;DHT22;15806;53.548;9.964;2023-04-06T06:02:52;3.10;1.00
28614;DHT22;15806;53.548;9.964;2023-04-06T06:04:33;3.10;99.90
28614;DHT22;15806;53.548;9.964;2023-04-06T06:06:13;3.00;99.90
28614;DHT22;15806;53.548;9.964;2023-04-06T06:07:54;3.00;99.90
28614;DHT22;15806;53.548;9.964;2023-04-06T06:09:34;3.10;99.90
28614;DHT22;15806;53.548;9.964;2023-04-06T06:11:15;3.10;99.90
28614;DHT22;15806;53.548;9.964;2023-04-06T06:12:55;3.20;99.90
28614;DHT22;15806;53.548;9.964;2023-04-06T06:14:36;3.20;1.00
28614;DHT22;15806;53.548;9.964;2023-04-06T06:16:18;3.10;99.90
28614;DHT22;15806;53.548;9.964;2023-04-06T06:17:58;3.20;14.70
28614;DHT22;15806;53.548;9.964;2023-04-06T06:19:39;3.30;1.00
28614;DHT22;15806;53.548;9.964;2023-04-06T06:21:20;3.30;99.90
28614;DHT22;15806;53.548;9.964;2023-04-06T06:23:00;3.30;99.90
28614;DHT22;15806;53.548;9.964;2023-04-06T06:24:41;3.30;1.00
28614;DHT22;15806;53.548;9.964;2023-04-06T06:26:21;3.30;99.90
28614;DHT22;15806;53.548;9.964;2023-04-06T06:28:02;3.30;99.90
28614;DHT22;15806;53.548;9.964;2023-04-06T06:29:42;3.30;5.20
28614;DHT22;15806;53.548;9.964;2023-04-06T06:31:23;3.30;1.00
28614;DHT22;15806;53.548;9.964;2023-04-06T06:33:04;3.30;1.00
28614;DHT22;15806;53.548;9.964;2023-04-06T06:34:44;3.30;99.90
28614;DHT22;15806;53.548;9.964;2023-04-06T06:36:25;3.40;99.90
28614;DHT22;15806;53.548;9.964;2023-04-06T06:38:06;3.50;19.50
28614;DHT22;15806;53.548;9.964;2023-04-06T06:39:46;3.40;1.00
28614;DHT22;15806;53.548;9.964;2023-04-06T06:41:27;3.40;1.00
28614;DHT22;15806;53.548;9.964;2023-04-06T06:43:07;3.50;99.90
28614;DHT22;15806;53.548;9.964;2023-04-06T06:44:48;3.50;87.30
28614;DHT22;15806;53.548;9.964;2023-04-06T06:46:28;3.60;1.00
28614;DHT22;15806;53.548;9.964;2023-04-06T06:48:09;3.90;1.00
28614;DHT22;15806;53.548;9.964;2023-04-06T06:49:50;4.60;1.00
28614;DHT22;15806;53.548;9.964;2023-04-06T06:51:30;5.10;99.90
28614;DHT22;15806;53.548;9.964;2023-04-06T06:53:11;5.60;42.50
28614;DHT22;15806;53.548;9.964;2023-04-06T06:54:52;6.20;1.00
28614;DHT22;15806;53.548;9.964;2023-04-06T06:56:33;6.70;1.00
28614;DHT22;15806;53.548;9.964;2023-04-06T06:58:13;7.00;99.90
28614;DHT22;15806;53.548;9.964;2023-04-06T06:59:54;6.90;99.90
28614;DHT22;15806;53.548;9.964;2023-04-06T07:01:34;7.20;99.90
28614;DHT22;15806;53.548;9.964;2023-04-06T07:03:15;7.40;86.50
28614;DHT22;15806;53.548;9.964;2023-04-06T07:04:55;7.50;1.00
28614;DHT22;15806;53.548;9.964;2023-04-06T07:06:36;8.00;1.00
28614;DHT22;15806;53.548;9.964;2023-04-06T07:08:16;8.40;1.00
28614;DHT22;15806;53.548;9.964;2023-04-06T07:09:57;8.40;1.00
28614;DHT22;15806;53.548;9.964;2023-04-06T07:11:38;8.20;1.00
28614;DHT22;15806;53.548;9.964;2023-04-06T07:13:19;8.40;1.00
28614;DHT22;15806;53.548;9.964;2023-04-06T07:15:00;8.00;1.00
28614;DHT22;15806;53.548;9.964;2023-04-06T07:16:40;7.10;1.00
28614;DHT22;15806;53.548;9.964;2023-04-06T07:18:21;6.30;1.00
28614;DHT22;15806;53.548;9.964;2023-04-06T07:20:02;6.10;1.00
28614;DHT22;15806;53.548;9.964;2023-04-06T07:21:43;5.80;1.00
28614;DHT22;15806;53.548;9.964;2023-04-06T07:23:24;5.60;1.00
28614;DHT22;15806;53.548;9.964;2023-04-06T07:25:04;5.60;1.00
28614;DHT22;15806;53.548;9.964;2023-04-06T07:26:45;5.50;1.00
28614;DHT22;15806;53.548;9.964;2023-04-06T07:28:26;5.40;1.00
28614;DHT22;15806;53.548;9.964;2023-04-06T07:30:07;5.50;1.00
28614;DHT22;15806;53.548;9.964;2023-04-06T07:31:48;5.60;1.00
28614;DHT22;15806;53.548;9.964;2023-04-06T07:33:28;5.60;1.00
28614;DHT22;15806;53.548;9.964;2023-04-06T07:35:09;5.60;1.00
28614;DHT22;15806;53.548;9.964;2023-04-06T07:36:49;5.50;1.00
28614;DHT22;15806;53.548;9.964;2023-04-06T07:38:30;5.40;1.00
28614;DHT22;15806;53.548;9.964;2023-04-06T07:40:11;5.40;1.00
28614;DHT22;15806;53.548;9.964;2023-04-06T07:41:51;5.50;1.00
28614;DHT22;15806;53.548;9.964;2023-04-06T07:43:32;5.70;1.00
28614;DHT22;15806;53.548;9.964;2023-04-06T07:45:13;5.80;1.00
28614;DHT22;15806;53.548;9.964;2023-04-06T07:46:54;5.80;1.00
28614;DHT22;15806;53.548;9.964;2023-04-06T07:48:34;5.80;1.00
28614;DHT22;15806;53.548;9.964;2023-04-06T07:50:15;5.90;1.00
28614;DHT22;15806;53.548;9.964;2023-04-06T07:51:56;6.00;1.00
28614;DHT22;15806;53.548;9.964;2023-04-06T07:53:36;6.10;1.00
28614;DHT22;15806;53.548;9.964;2023-04-06T07:55:17;6.00;1.00
28614;DHT22;15806;53.548;9.964;2023-04-06T07:56:57;6.20;1.00
28614;DHT22;15806;53.548;9.964;2023-04-06T07:58:38;6.20;1.00
28614;DHT22;15806;53.548;9.964;2023-04-06T08:00:19;6.20;1.00
28614;DHT22;15806;53.548;9.964;2023-04-06T08:02:00;6.50;1.00
28614;DHT22;15806;53.548;9.964;2023-04-06T08:03:40;6.30;1.00
28614;DHT22;15806;53.548;9.964;2023-04-06T08:05:21;6.30;1.00
28614;DHT22;15806;53.548;9.964;2023-04-06T08:07:02;6.40;1.00
28614;DHT22;15806;53.548;9.964;2023-04-06T08:08:43;6.50;1.00
28614;DHT22;15806;53.548;9.964;2023-04-06T08:10:23;6.60;1.00
28614;DHT22;15806;53.548;9.964;2023-04-06T08:12:04;6.60;1.00
28614;DHT22;15806;53.548;9.964;2023-04-06T08:13:45;6.80;1.00
28614;DHT22;15806;53.548;9.964;2023-04-06T08:15:25;7.00;1.00
28614;DHT22;15806;53.548;9.964;2023-04-06T08:17:07;7.10;1.00
28614;DHT22;15806;53.548;9.964;2023-04-06T08:18:47;7.00;1.00
28614;DHT22;15806;53.548;9.964;2023-04-06T08:20:28;7.10;99.90
28614;DHT22;15806;53.548;9.964;2023-04-06T08:22:08;7.20;99.90
28614;DHT22;15806;53.548;9.964;2023-04-06T08:23:49;7.30;99.90
28614;DHT22;15806;53.548;9.964;2023-04-06T08:25:30;7.40;99.90
28614;DHT22;15806;53.548;9.964;2023-04-06T08:27:10;7.30;99.90
28614;DHT22;15806;53.548;9.964;2023-04-06T08:28:51;7.20;99.90
28614;DHT22;15806;53.548;9.964;2023-04-06T08:30:31;7.30;99.90
28614;DHT22;15806;53.548;9.964;2023-04-06T08:32:12;7.40;99.90
28614;DHT22;15806;53.548;9.964;2023-04-06T08:33:52;7.30;99.90
28614;DHT22;15806;53.548;9.964;2023-04-06T08:35:33;7.30;99.90
28614;DHT22;15806;53.548;9.964;2023-04-06T08:37:13;7.40;99.90
28614;DHT22;15806;53.548;9.964;2023-04-06T08:38:54;7.40;99.90
28614;DHT22;15806;53.548;9.964;2023-04-06T08:40:39;7.60;99.90
28614;DHT22;15806;53.548;9.964;2023-04-06T08:42:21;7.50;99.90
28614;DHT22;15806;53.548;9.964;2023-04-06T08:44:01;7.80;99.90
28614;DHT22;15806;53.548;9.964;2023-04-06T08:45:42;8.00;99.90
28614;DHT22;15806;53.548;9.964;2023-04-06T08:47:23;7.90;99.90
28614;DHT22;15806;53.548;9.964;2023-04-06T08:49:05;7.80;99.90
28614;DHT22;15806;53.548;9.964;2023-04-06T08:50:46;8.10;99.90
28614;DHT22;15806;53.548;9.964;2023-04-06T08:52:26;8.20;99.90
28614;DHT22;15806;53.548;9.964;2023-04-06T08:54:08;8.30;99.90
28614;DHT22;15806;53.548;9.964;2023-04-06T08:55:49;8.10;99.90
28614;DHT22;15806;53.548;9.964;2023-04-06T08:57:31;8.10;99.90
28614;DHT22;15806;53.548;9.964;2023-04-06T08:59:12;8.10;99.90
28614;DHT22;15806;53.548;9.964;2023-04-06T09:00:53;8.10;99.90
28614;DHT22;15806;53.548;9.964;2023-04-06T09:02:33;8.20;99.90
28614;DHT22;15806;53.548;9.964;2023-04-06T09:04:15;8.30;99.90
28614;DHT22;15806;53.548;9.964;2023-04-06T09:05:55;8.20;99.90
28614;DHT22;15806;53.548;9.964;2023-04-06T09:07:37;8.20;99.90
28614;DHT22;15806;53.548;9.964;2023-04-06T09:09:19;8.30;99.90
28614;DHT22;15806;53.548;9.964;2023-04-06T09:11:00;8.50;99.90
28614;DHT22;15806;53.548;9.964;2023-04-06T09:12:40;8.60;99.90
28614;DHT22;15806;53.548;9.964;2023-04-06T09:14:38;8.80;99.90
28614;DHT22;15806;53.548;9.964;2023-04-06T09:16:19;8.70;99.90
28614;DHT22;15806;53.548;9.964;2023-04-06T09:18:00;8.80;99.90
28614;DHT22;15806;53.548;9.964;2023-04-06T09:19:47;9.10;99.90
28614;DHT22;15806;53.548;9.964;2023-04-06T09:21:28;9.00;99.90
28614;DHT22;15806;53.548;9.964;2023-04-06T09:23:18;9.20;99.90
28614;DHT22;15806;53.548;9.964;2023-04-06T09:24:58;8.90;99.90
28614;DHT22;15806;53.548;9.964;2023-04-06T09:26:46;8.70;99.90
28614;DHT22;15806;53.548;9.964;2023-04-06T09:28:27;8.60;99.90
28614;DHT22;15806;53.548;9.964;2023-04-06T09:30:11;8.80;99.90
28614;DHT22;15806;53.548;9.964;2023-04-06T09:31:52;9.20;99.90
28614;DHT22;15806;53.548;9.964;2023-04-06T09:33:32;8.90;99.90
28614;DHT22;15806;53.548;9.964;2023-04-06T09:35:13;8.90;99.90
28614;DHT22;15806;53.548;9.964;2023-04-06T09:36:53;8.70;99.90
28614;DHT22;15806;53.548;9.964;2023-04-06T09:38:34;8.40;99.90
28614;DHT22;15806;53.548;9.964;2023-04-06T09:40:17;8.50;99.90
28614;DHT22;15806;53.548;9.964;2023-04-06T09:41:57;8.70;99.90
28614;DHT22;15806;53.548;9.964;2023-04-06T09:43:38;8.60;99.90
28614;DHT22;15806;53.548;9.964;2023-04-06T09:45:18;8.60;99.90
28614;DHT22;15806;53.548;9.964;2023-04-06T09:46:59;8.60;99.90
28614;DHT22;15806;53.548;9.964;2023-04-06T09:48:40;8.70;99.90
28614;DHT22;15806;53.548;9.964;2023-04-06T09:50:22;8.70;99.90
28614;DHT22;15806;53.548;9.964;2023-04-06T09:52:06;8.70;99.90
28614;DHT22;15806;53.548;9.964;2023-04-06T09:53:59;8.80;99.90
28614;DHT22;15806;53.548;9.964;2023-04-06T09:55:40;8.80;99.90
28614;DHT22;15806;53.548;9.964;2023-04-06T09:57:28;8.90;99.90
28614;DHT22;15806;53.548;9.964;2023-04-06T09:59:48;8.80;99.90
28614;DHT22;15806;53.548;9.964;2023-04-06T10:01:32;8.80;99.90
28614;DHT22;15806;53.548;9.964;2023-04-06T10:05:09;8.90;99.90
28614;DHT22;15806;53.548;9.964;2023-04-06T10:06:53;9.10;99.90
28614;DHT22;15806;53.548;9.964;2023-04-06T10:08:34;9.10;99.90
28614;DHT22;15806;53.548;9.964;2023-04-06T10:10:16;9.20;99.90
28614;DHT22;15806;53.548;9.964;2023-04-06T10:11:58;9.30;99.90
28614;DHT22;15806;53.548;9.964;2023-04-06T10:13:39;9.20;99.90
28614;DHT22;15806;53.548;9.964;2023-04-06T10:15:19;9.30;99.90
28614;DHT22;15806;53.548;9.964;2023-04-06T10:17:01;9.20;99.90
28614;DHT22;15806;53.548;9.964;2023-04-06T10:18:48;9.10;99.90
28614;DHT22;15806;53.548;9.964;2023-04-06T10:20:55;9.20;99.90
28614;DHT22;15806;53.548;9.964;2023-04-06T10:22:59;9.20;99.90
28614;DHT22;15806;53.548;9.964;2023-04-06T10:24:43;9.20;99.90
28614;DHT22;15806;53.548;9.964;2023-04-06T10:26:23;9.30;99.90
28614;DHT22;15806;53.548;9.964;2023-04-06T10:28:08;9.30;99.90
28614;DHT22;15806;53.548;9.964;2023-04-06T10:29:50;9.50;99.90
28614;DHT22;15806;53.548;9.964;2023-04-06T10:31:31;9.70;99.90
28614;DHT22;15806;53.548;9.964;2023-04-06T10:33:19;9.80;99.90
28614;DHT22;15806;53.548;9.964;2023-04-06T10:35:11;9.90;99.90
28614;DHT22;15806;53.548;9.964;2023-04-06T10:36:51;9.80;99.90
28614;DHT22;15806;53.548;9.964;2023-04-06T10:38:37;9.80;99.90
28614;DHT22;15806;53.548;9.964;2023-04-06T10:40:27;9.80;99.90
28614;DHT22;15806;53.548;9.964;2023-04-06T10:42:07;9.80;99.90
28614;DHT22;15806;53.548;9.964;2023-04-06T10:43:56;9.90;99.90
28614;DHT22;15806;53.548;9.964;2023-04-06T10:45:37;10.00;99.90
28614;DHT22;15806;53.548;9.964;2023-04-06T10:47:18;9.90;99.90
28614;DHT22;15806;53.548;9.964;2023-04-06T10:49:10;9.90;99.90
28614;DHT22;15806;53.548;9.964;2023-04-06T10:50:52;9.90;99.90
28614;DHT22;15806;53.548;9.964;2023-04-06T10:52:33;10.00;99.90
28614;DHT22;15806;53.548;9.964;2023-04-06T10:54:13;10.00;99.90
28614;DHT22;15806;53.548;9.964;2023-04-06T10:55:56;9.90;99.90